sensor_id;sensor_type;location;lat;lon;timestamp;P1;durP1;ratioP1;P2;durP2;ratioP2
13335;SDS011;6737;51.480;11.962;2023-07-16T00:01:31;6.72;;;4.50;;
13335;SDS011;6737;51.480;11.962;2023-07-16T00:03:57;5.63;;;3.97;;
13335;SDS011;6737;51.480;11.962;2023-07-16T00:06:22;9.15;;;4.70;;
13335;SDS011;6737;51.480;11.962;2023-07-16T00:08:48;6.78;;;4.70;;
13335;SDS011;6737;51.480;11.962;2023-07-16T00:11:14;5.93;;;4.10;;
13335;SDS011;6737;51.480;11.962;2023-07-16T00:13:40;4.63;;;3.95;;
13335;SDS011;6737;51.480;11.962;2023-07-16T00:16:11;6.50;;;4.85;;
13335;SDS011;6737;51.480;11.962;2023-07-16T00:18:38;7.25;;;3.80;;
13335;SDS011;6737;51.480;11.962;2023-07-16T00:21:03;6.35;;;3.53;;
13335;SDS011;6737;51.480;11.962;2023-07-16T00:23:29;4.35;;;2.75;;
13335;SDS011;6737;51.480;11.962;2023-07-16T00:25:55;6.93;;;2.80;;
13335;SDS011;6737;51.480;11.962;2023-07-16T00:28:21;4.57;;;2.70;;
13335;SDS011;6737;51.480;11.962;2023-07-16T00:30:46;4.95;;;2.67;;
13335;SDS011;6737;51.480;11.962;2023-07-16T00:33:12;5.80;;;2.67;;
13335;SDS011;6737;51.480;11.962;2023-07-16T00:35:38;3.42;;;2.60;;
13335;SDS011;6737;51.480;11.962;2023-07-16T00:38:04;5.78;;;2.75;;
13335;SDS011;6737;51.480;11.962;2023-07-16T00:40:29;4.38;;;2.30;;
13335;SDS011;6737;51.480;11.962;2023-07-16T00:42:55;3.72;;;2.17;;
13335;SDS011;6737;51.480;11.962;2023-07-16T00:45:21;5.30;;;2.40;;
13335;SDS011;6737;51.480;11.962;2023-07-16T00:47:47;4.05;;;2.20;;
13335;SDS011;6737;51.480;11.962;2023-07-16T00:50:12;3.63;;;2.22;;
13335;SDS011;6737;51.480;11.962;2023-07-16T00:52:39;2.90;;;2.42;;
13335;SDS011;6737;51.480;11.962;2023-07-16T00:55:05;3.95;;;2.30;;
13335;SDS011;6737;51.480;11.962;2023-07-16T00:57:32;4.05;;;2.50;;
13335;SDS011;6737;51.480;11.962;2023-07-16T00:59:58;7.25;;;2.50;;
13335;SDS011;6737;51.480;11.962;2023-07-16T01:02:24;5.00;;;2.60;;
13335;SDS011;6737;51.480;11.962;2023-07-16T01:04:51;5.68;;;2.90;;
13335;SDS011;6737;51.480;11.962;2023-07-16T01:07:17;3.75;;;2.67;;
13335;SDS011;6737;51.480;11.962;2023-07-16T01:09:44;4.13;;;2.60;;
13335;SDS011;6737;51.480;11.962;2023-07-16T01:12:11;6.35;;;2.58;;
13335;SDS011;6737;51.480;11.962;2023-07-16T01:14:39;3.63;;;2.42;;
13335;SDS011;6737;51.480;11.962;2023-07-16T01:17:06;5.07;;;2.50;;
13335;SDS011;6737;51.480;11.962;2023-07-16T01:19:33;5.00;;;2.53;;
13335;SDS011;6737;51.480;11.962;2023-07-16T01:31:20;5.55;;;2.70;;
13335;SDS011;6737;51.480;11.962;2023-07-16T01:33:48;9.98;;;2.92;;
13335;SDS011;6737;51.480;11.962;2023-07-16T01:36:16;3.78;;;2.70;;
13335;SDS011;6737;51.480;11.962;2023-07-16T01:38:42;6.20;;;2.75;;
13335;SDS011;6737;51.480;11.962;2023-07-16T01:41:09;5.03;;;2.70;;
13335;SDS011;6737;51.480;11.962;2023-07-16T01:43:36;5.50;;;2.83;;
13335;SDS011;6737;51.480;11.962;2023-07-16T01:46:02;6.80;;;2.70;;
13335;SDS011;6737;51.480;11.962;2023-07-16T01:48:32;3.67;;;2.72;;
13335;SDS011;6737;51.480;11.962;2023-07-16T01:50:59;6.03;;;2.95;;
13335;SDS011;6737;51.480;11.962;2023-07-16T01:53:25;3.75;;;2.67;;
13335;SDS011;6737;51.480;11.962;2023-07-16T01:55:51;6.30;;;2.63;;
13335;SDS011;6737;51.480;11.962;2023-07-16T01:58:17;4.53;;;2.80;;
13335;SDS011;6737;51.480;11.962;2023-07-16T02:00:43;5.68;;;2.90;;
13335;SDS011;6737;51.480;11.962;2023-07-16T02:03:09;4.50;;;2.90;;
13335;SDS011;6737;51.480;11.962;2023-07-16T02:05:35;3.28;;;2.67;;
13335;SDS011;6737;51.480;11.962;2023-07-16T02:08:00;3.72;;;2.80;;
13335;SDS011;6737;51.480;11.962;2023-07-16T02:10:26;4.25;;;2.55;;
13335;SDS011;6737;51.480;11.962;2023-07-16T02:12:52;3.80;;;2.80;;
13335;SDS011;6737;51.480;11.962;2023-07-16T02:15:18;4.22;;;3.22;;
13335;SDS011;6737;51.480;11.962;2023-07-16T02:17:44;2.92;;;2.63;;
13335;SDS011;6737;51.480;11.962;2023-07-16T02:20:10;4.90;;;2.55;;
13335;SDS011;6737;51.480;11.962;2023-07-16T02:22:36;5.80;;;2.90;;
13335;SDS011;6737;51.480;11.962;2023-07-16T02:25:02;4.18;;;2.95;;
13335;SDS011;6737;51.480;11.962;2023-07-16T02:27:28;3.25;;;2.80;;
13335;SDS011;6737;51.480;11.962;2023-07-16T02:29:54;3.85;;;2.75;;
13335;SDS011;6737;51.480;11.962;2023-07-16T02:32:20;3.75;;;2.58;;
13335;SDS011;6737;51.480;11.962;2023-07-16T02:34:46;3.78;;;2.70;;
13335;SDS011;6737;51.480;11.962;2023-07-16T02:37:11;4.65;;;2.72;;
13335;SDS011;6737;51.480;11.962;2023-07-16T02:39:44;5.70;;;2.92;;
13335;SDS011;6737;51.480;11.962;2023-07-16T02:42:12;4.07;;;3.00;;
13335;SDS011;6737;51.480;11.962;2023-07-16T02:44:38;4.85;;;2.80;;
13335;SDS011;6737;51.480;11.962;2023-07-16T02:47:08;4.07;;;2.80;;
13335;SDS011;6737;51.480;11.962;2023-07-16T02:49:34;4.78;;;3.10;;
13335;SDS011;6737;51.480;11.962;2023-07-16T02:52:00;3.60;;;3.05;;
13335;SDS011;6737;51.480;11.962;2023-07-16T02:54:25;6.93;;;3.10;;
13335;SDS011;6737;51.480;11.962;2023-07-16T02:56:52;4.18;;;3.42;;
13335;SDS011;6737;51.480;11.962;2023-07-16T02:59:18;6.50;;;3.60;;
13335;SDS011;6737;51.480;11.962;2023-07-16T03:01:44;4.00;;;3.60;;
13335;SDS011;6737;51.480;11.962;2023-07-16T03:04:09;7.18;;;3.30;;
13335;SDS011;6737;51.480;11.962;2023-07-16T03:06:35;3.95;;;3.55;;
13335;SDS011;6737;51.480;11.962;2023-07-16T03:09:01;4.28;;;3.40;;
13335;SDS011;6737;51.480;11.962;2023-07-16T03:11:27;5.82;;;3.10;;
13335;SDS011;6737;51.480;11.962;2023-07-16T03:13:52;3.85;;;3.10;;
13335;SDS011;6737;51.480;11.962;2023-07-16T03:16:18;4.45;;;3.28;;
13335;SDS011;6737;51.480;11.962;2023-07-16T03:18:44;5.50;;;3.35;;
13335;SDS011;6737;51.480;11.962;2023-07-16T03:21:10;3.92;;;3.25;;
13335;SDS011;6737;51.480;11.962;2023-07-16T03:23:36;5.72;;;3.25;;
13335;SDS011;6737;51.480;11.962;2023-07-16T03:26:02;5.05;;;3.17;;
13335;SDS011;6737;51.480;11.962;2023-07-16T03:28:28;4.32;;;3.22;;
13335;SDS011;6737;51.480;11.962;2023-07-16T03:30:54;4.85;;;3.55;;
13335;SDS011;6737;51.480;11.962;2023-07-16T03:33:20;4.07;;;3.20;;
13335;SDS011;6737;51.480;11.962;2023-07-16T03:35:46;3.53;;;3.03;;
13335;SDS011;6737;51.480;11.962;2023-07-16T03:38:13;6.00;;;3.15;;
13335;SDS011;6737;51.480;11.962;2023-07-16T03:40:39;4.00;;;3.60;;
13335;SDS011;6737;51.480;11.962;2023-07-16T03:43:07;5.45;;;3.25;;
13335;SDS011;6737;51.480;11.962;2023-07-16T03:45:33;7.38;;;3.45;;
13335;SDS011;6737;51.480;11.962;2023-07-16T03:47:58;5.13;;;3.40;;
13335;SDS011;6737;51.480;11.962;2023-07-16T03:50:24;5.07;;;2.90;;
13335;SDS011;6737;51.480;11.962;2023-07-16T03:52:50;6.80;;;3.60;;
13335;SDS011;6737;51.480;11.962;2023-07-16T03:55:16;3.80;;;3.30;;
13335;SDS011;6737;51.480;11.962;2023-07-16T03:57:42;5.55;;;3.38;;
13335;SDS011;6737;51.480;11.962;2023-07-16T04:00:08;6.18;;;3.30;;
13335;SDS011;6737;51.480;11.962;2023-07-16T04:02:35;4.45;;;3.45;;
13335;SDS011;6737;51.480;11.962;2023-07-16T04:05:01;4.00;;;3.15;;
13335;SDS011;6737;51.480;11.962;2023-07-16T04:07:28;7.13;;;3.33;;
13335;SDS011;6737;51.480;11.962;2023-07-16T04:09:54;4.45;;;3.70;;
13335;SDS011;6737;51.480;11.962;2023-07-16T04:12:19;4.70;;;3.50;;
13335;SDS011;6737;51.480;11.962;2023-07-16T04:14:46;3.83;;;3.40;;
13335;SDS011;6737;51.480;11.962;2023-07-16T04:17:12;7.90;;;3.78;;
13335;SDS011;6737;51.480;11.962;2023-07-16T04:19:38;5.22;;;3.20;;
13335;SDS011;6737;51.480;11.962;2023-07-16T04:22:04;9.20;;;3.60;;
13335;SDS011;6737;51.480;11.962;2023-07-16T04:24:30;5.80;;;3.30;;
13335;SDS011;6737;51.480;11.962;2023-07-16T04:26:57;5.75;;;3.50;;
13335;SDS011;6737;51.480;11.962;2023-07-16T04:29:23;3.95;;;3.15;;
13335;SDS011;6737;51.480;11.962;2023-07-16T04:31:49;6.75;;;3.67;;
13335;SDS011;6737;51.480;11.962;2023-07-16T04:34:15;5.55;;;3.28;;
13335;SDS011;6737;51.480;11.962;2023-07-16T04:36:44;4.38;;;3.10;;
13335;SDS011;6737;51.480;11.962;2023-07-16T04:39:09;4.28;;;3.20;;
13335;SDS011;6737;51.480;11.962;2023-07-16T04:41:35;5.80;;;3.40;;
13335;SDS011;6737;51.480;11.962;2023-07-16T04:44:01;6.18;;;3.40;;
13335;SDS011;6737;51.480;11.962;2023-07-16T04:46:27;5.18;;;3.40;;
13335;SDS011;6737;51.480;11.962;2023-07-16T04:48:53;3.63;;;3.33;;
13335;SDS011;6737;51.480;11.962;2023-07-16T04:51:19;4.32;;;3.15;;
13335;SDS011;6737;51.480;11.962;2023-07-16T04:53:44;5.25;;;3.17;;
13335;SDS011;6737;51.480;11.962;2023-07-16T04:56:13;4.25;;;3.05;;
13335;SDS011;6737;51.480;11.962;2023-07-16T04:58:40;6.85;;;3.28;;
13335;SDS011;6737;51.480;11.962;2023-07-16T05:01:06;3.95;;;3.15;;
13335;SDS011;6737;51.480;11.962;2023-07-16T05:03:35;5.50;;;3.33;;
13335;SDS011;6737;51.480;11.962;2023-07-16T05:06:01;4.65;;;3.05;;
13335;SDS011;6737;51.480;11.962;2023-07-16T05:08:27;4.80;;;3.20;;
13335;SDS011;6737;51.480;11.962;2023-07-16T05:10:53;5.70;;;3.47;;
13335;SDS011;6737;51.480;11.962;2023-07-16T05:13:19;5.25;;;3.55;;
13335;SDS011;6737;51.480;11.962;2023-07-16T05:15:45;4.05;;;3.08;;
13335;SDS011;6737;51.480;11.962;2023-07-16T05:18:11;6.40;;;3.00;;
13335;SDS011;6737;51.480;11.962;2023-07-16T05:20:37;4.75;;;3.20;;
13335;SDS011;6737;51.480;11.962;2023-07-16T05:23:03;4.30;;;2.92;;
13335;SDS011;6737;51.480;11.962;2023-07-16T05:25:29;4.80;;;2.80;;
13335;SDS011;6737;51.480;11.962;2023-07-16T05:27:55;5.78;;;2.90;;
13335;SDS011;6737;51.480;11.962;2023-07-16T05:30:21;6.00;;;2.90;;
13335;SDS011;6737;51.480;11.962;2023-07-16T05:32:47;3.50;;;2.75;;
13335;SDS011;6737;51.480;11.962;2023-07-16T05:35:13;4.38;;;3.00;;
13335;SDS011;6737;51.480;11.962;2023-07-16T05:37:38;4.13;;;2.83;;
13335;SDS011;6737;51.480;11.962;2023-07-16T05:40:04;5.95;;;2.75;;
13335;SDS011;6737;51.480;11.962;2023-07-16T05:42:33;5.43;;;2.65;;
13335;SDS011;6737;51.480;11.962;2023-07-16T05:44:59;7.55;;;3.05;;
13335;SDS011;6737;51.480;11.962;2023-07-16T05:47:25;3.63;;;2.70;;
13335;SDS011;6737;51.480;11.962;2023-07-16T05:49:51;5.45;;;2.67;;
13335;SDS011;6737;51.480;11.962;2023-07-16T05:52:17;4.85;;;2.70;;
13335;SDS011;6737;51.480;11.962;2023-07-16T05:54:43;3.72;;;2.60;;
13335;SDS011;6737;51.480;11.962;2023-07-16T05:57:10;3.35;;;2.40;;
13335;SDS011;6737;51.480;11.962;2023-07-16T05:59:36;7.15;;;2.47;;
13335;SDS011;6737;51.480;11.962;2023-07-16T06:02:03;4.85;;;2.33;;
13335;SDS011;6737;51.480;11.962;2023-07-16T06:04:29;4.03;;;2.00;;
13335;SDS011;6737;51.480;11.962;2023-07-16T06:06:56;4.28;;;2.00;;
13335;SDS011;6737;51.480;11.962;2023-07-16T06:09:22;5.28;;;1.90;;
13335;SDS011;6737;51.480;11.962;2023-07-16T06:11:48;6.50;;;1.90;;
13335;SDS011;6737;51.480;11.962;2023-07-16T06:14:14;3.83;;;2.13;;
13335;SDS011;6737;51.480;11.962;2023-07-16T06:16:40;3.85;;;2.10;;
13335;SDS011;6737;51.480;11.962;2023-07-16T06:19:06;4.45;;;2.10;;
13335;SDS011;6737;51.480;11.962;2023-07-16T06:21:32;2.33;;;2.00;;
13335;SDS011;6737;51.480;11.962;2023-07-16T06:23:57;3.15;;;1.80;;
13335;SDS011;6737;51.480;11.962;2023-07-16T06:26:23;4.20;;;1.73;;
13335;SDS011;6737;51.480;11.962;2023-07-16T06:28:49;5.95;;;1.85;;
13335;SDS011;6737;51.480;11.962;2023-07-16T06:31:18;2.92;;;1.90;;
13335;SDS011;6737;51.480;11.962;2023-07-16T06:33:44;5.40;;;2.03;;
13335;SDS011;6737;51.480;11.962;2023-07-16T06:36:12;4.65;;;1.77;;
13335;SDS011;6737;51.480;11.962;2023-07-16T06:38:38;4.07;;;1.95;;
13335;SDS011;6737;51.480;11.962;2023-07-16T06:41:03;3.22;;;1.80;;
13335;SDS011;6737;51.480;11.962;2023-07-16T06:43:29;2.97;;;1.75;;
13335;SDS011;6737;51.480;11.962;2023-07-16T06:45:55;2.58;;;1.95;;
13335;SDS011;6737;51.480;11.962;2023-07-16T06:48:21;3.63;;;1.70;;
13335;SDS011;6737;51.480;11.962;2023-07-16T06:50:47;3.60;;;1.95;;
13335;SDS011;6737;51.480;11.962;2023-07-16T06:53:14;4.22;;;1.80;;
13335;SDS011;6737;51.480;11.962;2023-07-16T06:55:40;4.20;;;1.77;;
13335;SDS011;6737;51.480;11.962;2023-07-16T06:58:09;5.68;;;1.83;;
13335;SDS011;6737;51.480;11.962;2023-07-16T07:00:36;5.35;;;1.85;;
13335;SDS011;6737;51.480;11.962;2023-07-16T07:03:02;2.78;;;1.60;;
13335;SDS011;6737;51.480;11.962;2023-07-16T07:05:27;5.00;;;1.70;;
13335;SDS011;6737;51.480;11.962;2023-07-16T07:07:53;3.80;;;1.83;;
13335;SDS011;6737;51.480;11.962;2023-07-16T07:10:19;4.07;;;1.98;;
13335;SDS011;6737;51.480;11.962;2023-07-16T07:12:45;4.95;;;2.00;;
13335;SDS011;6737;51.480;11.962;2023-07-16T07:15:11;3.25;;;1.83;;
13335;SDS011;6737;51.480;11.962;2023-07-16T07:17:37;3.50;;;1.70;;
13335;SDS011;6737;51.480;11.962;2023-07-16T07:20:03;5.18;;;1.80;;
13335;SDS011;6737;51.480;11.962;2023-07-16T07:22:29;3.90;;;1.60;;
13335;SDS011;6737;51.480;11.962;2023-07-16T07:24:55;4.90;;;1.88;;
13335;SDS011;6737;51.480;11.962;2023-07-16T07:27:20;7.18;;;1.95;;
13335;SDS011;6737;51.480;11.962;2023-07-16T07:29:46;4.70;;;1.70;;
13335;SDS011;6737;51.480;11.962;2023-07-16T07:32:12;6.40;;;2.00;;
13335;SDS011;6737;51.480;11.962;2023-07-16T07:34:39;3.67;;;1.73;;
13335;SDS011;6737;51.480;11.962;2023-07-16T07:37:05;5.07;;;1.90;;
13335;SDS011;6737;51.480;11.962;2023-07-16T07:39:31;4.50;;;1.80;;
13335;SDS011;6737;51.480;11.962;2023-07-16T07:41:57;3.83;;;1.70;;
13335;SDS011;6737;51.480;11.962;2023-07-16T07:44:22;3.45;;;1.52;;
13335;SDS011;6737;51.480;11.962;2023-07-16T07:46:48;2.63;;;1.60;;
13335;SDS011;6737;51.480;11.962;2023-07-16T07:49:14;2.42;;;1.67;;
13335;SDS011;6737;51.480;11.962;2023-07-16T07:51:39;2.38;;;1.38;;
13335;SDS011;6737;51.480;11.962;2023-07-16T07:54:05;3.92;;;1.70;;
13335;SDS011;6737;51.480;11.962;2023-07-16T07:56:31;2.67;;;1.60;;
13335;SDS011;6737;51.480;11.962;2023-07-16T07:58:57;4.75;;;1.90;;
13335;SDS011;6737;51.480;11.962;2023-07-16T08:01:23;7.85;;;1.70;;
13335;SDS011;6737;51.480;11.962;2023-07-16T08:03:48;3.22;;;1.52;;
13335;SDS011;6737;51.480;11.962;2023-07-16T08:06:14;2.67;;;1.50;;
13335;SDS011;6737;51.480;11.962;2023-07-16T08:08:40;4.47;;;1.60;;
13335;SDS011;6737;51.480;11.962;2023-07-16T08:11:06;4.22;;;1.65;;
13335;SDS011;6737;51.480;11.962;2023-07-16T08:13:32;3.20;;;1.70;;
13335;SDS011;6737;51.480;11.962;2023-07-16T08:15:57;3.63;;;1.60;;
13335;SDS011;6737;51.480;11.962;2023-07-16T08:18:23;4.18;;;1.58;;
13335;SDS011;6737;51.480;11.962;2023-07-16T08:20:49;3.75;;;1.75;;
13335;SDS011;6737;51.480;11.962;2023-07-16T08:23:15;3.63;;;1.50;;
13335;SDS011;6737;51.480;11.962;2023-07-16T08:25:42;3.72;;;1.63;;
13335;SDS011;6737;51.480;11.962;2023-07-16T08:28:08;3.97;;;1.52;;
13335;SDS011;6737;51.480;11.962;2023-07-16T08:30:33;2.47;;;1.25;;
13335;SDS011;6737;51.480;11.962;2023-07-16T08:32:59;3.33;;;1.63;;
13335;SDS011;6737;51.480;11.962;2023-07-16T08:35:25;2.67;;;1.27;;
13335;SDS011;6737;51.480;11.962;2023-07-16T08:37:51;4.63;;;1.60;;
13335;SDS011;6737;51.480;11.962;2023-07-16T08:40:16;2.47;;;1.30;;
13335;SDS011;6737;51.480;11.962;2023-07-16T08:42:45;5.07;;;1.60;;
13335;SDS011;6737;51.480;11.962;2023-07-16T08:45:12;3.97;;;1.48;;
13335;SDS011;6737;51.480;11.962;2023-07-16T08:47:41;2.53;;;1.50;;
13335;SDS011;6737;51.480;11.962;2023-07-16T08:50:07;4.43;;;1.45;;
13335;SDS011;6737;51.480;11.962;2023-07-16T08:52:34;7.13;;;1.70;;
13335;SDS011;6737;51.480;11.962;2023-07-16T08:55:00;4.10;;;1.60;;
13335;SDS011;6737;51.480;11.962;2023-07-16T08:57:26;7.10;;;1.65;;
13335;SDS011;6737;51.480;11.962;2023-07-16T08:59:52;4.88;;;1.67;;
13335;SDS011;6737;51.480;11.962;2023-07-16T09:02:20;2.78;;;1.45;;
13335;SDS011;6737;51.480;11.962;2023-07-16T09:04:47;5.18;;;1.92;;
13335;SDS011;6737;51.480;11.962;2023-07-16T09:07:14;4.00;;;1.42;;
13335;SDS011;6737;51.480;11.962;2023-07-16T09:09:41;6.22;;;1.92;;
13335;SDS011;6737;51.480;11.962;2023-07-16T09:12:11;5.78;;;1.50;;
13335;SDS011;6737;51.480;11.962;2023-07-16T09:14:37;2.63;;;1.40;;
13335;SDS011;6737;51.480;11.962;2023-07-16T09:17:05;5.18;;;1.60;;
13335;SDS011;6737;51.480;11.962;2023-07-16T09:19:34;2.45;;;1.48;;
13335;SDS011;6737;51.480;11.962;2023-07-16T09:22:01;4.03;;;1.60;;
13335;SDS011;6737;51.480;11.962;2023-07-16T09:24:26;2.83;;;1.40;;
13335;SDS011;6737;51.480;11.962;2023-07-16T09:26:54;3.72;;;1.80;;
13335;SDS011;6737;51.480;11.962;2023-07-16T09:29:26;3.95;;;1.63;;
13335;SDS011;6737;51.480;11.962;2023-07-16T09:31:55;7.22;;;1.88;;
13335;SDS011;6737;51.480;11.962;2023-07-16T09:34:23;3.15;;;1.55;;
13335;SDS011;6737;51.480;11.962;2023-07-16T09:36:51;5.82;;;1.50;;
13335;SDS011;6737;51.480;11.962;2023-07-16T09:39:17;2.90;;;1.63;;
13335;SDS011;6737;51.480;11.962;2023-07-16T09:41:47;5.38;;;1.63;;
13335;SDS011;6737;51.480;11.962;2023-07-16T09:44:14;2.40;;;1.50;;
13335;SDS011;6737;51.480;11.962;2023-07-16T09:46:44;5.88;;;1.60;;
13335;SDS011;6737;51.480;11.962;2023-07-16T09:49:10;5.60;;;1.88;;
13335;SDS011;6737;51.480;11.962;2023-07-16T09:51:37;4.88;;;1.67;;
13335;SDS011;6737;51.480;11.962;2023-07-16T09:54:04;4.63;;;1.67;;
13335;SDS011;6737;51.480;11.962;2023-07-16T09:56:35;2.80;;;1.58;;
13335;SDS011;6737;51.480;11.962;2023-07-16T09:59:14;4.68;;;1.80;;
13335;SDS011;6737;51.480;11.962;2023-07-16T10:01:49;3.15;;;1.70;;
13335;SDS011;6737;51.480;11.962;2023-07-16T10:04:17;6.32;;;1.48;;
13335;SDS011;6737;51.480;11.962;2023-07-16T10:14:41;3.80;;;1.38;;
13335;SDS011;6737;51.480;11.962;2023-07-16T10:17:12;5.22;;;1.52;;
13335;SDS011;6737;51.480;11.962;2023-07-16T10:20:09;2.50;;;1.40;;
13335;SDS011;6737;51.480;11.962;2023-07-16T10:27:43;3.92;;;1.67;;
13335;SDS011;6737;51.480;11.962;2023-07-16T10:30:11;4.43;;;1.65;;
13335;SDS011;6737;51.480;11.962;2023-07-16T10:32:37;5.03;;;1.60;;
13335;SDS011;6737;51.480;11.962;2023-07-16T10:35:04;3.17;;;1.58;;
13335;SDS011;6737;51.480;11.962;2023-07-16T10:37:31;5.43;;;1.70;;
13335;SDS011;6737;51.480;11.962;2023-07-16T10:39:58;4.15;;;1.90;;
13335;SDS011;6737;51.480;11.962;2023-07-16T10:42:26;4.47;;;1.70;;
13335;SDS011;6737;51.480;11.962;2023-07-16T10:44:57;4.13;;;1.80;;
13335;SDS011;6737;51.480;11.962;2023-07-16T10:47:31;3.42;;;1.60;;
13335;SDS011;6737;51.480;11.962;2023-07-16T10:49:58;3.60;;;1.67;;
13335;SDS011;6737;51.480;11.962;2023-07-16T10:52:25;3.92;;;1.80;;
13335;SDS011;6737;51.480;11.962;2023-07-16T10:54:51;3.05;;;1.58;;
13335;SDS011;6737;51.480;11.962;2023-07-16T10:57:26;3.63;;;1.52;;
13335;SDS011;6737;51.480;11.962;2023-07-16T10:59:53;5.03;;;1.73;;
13335;SDS011;6737;51.480;11.962;2023-07-16T11:02:22;3.13;;;1.70;;
13335;SDS011;6737;51.480;11.962;2023-07-16T11:04:49;4.32;;;1.60;;
13335;SDS011;6737;51.480;11.962;2023-07-16T11:07:15;5.80;;;1.77;;
13335;SDS011;6737;51.480;11.962;2023-07-16T11:09:49;4.55;;;1.40;;
13335;SDS011;6737;51.480;11.962;2023-07-16T11:12:17;3.47;;;1.70;;
13335;SDS011;6737;51.480;11.962;2023-07-16T11:14:45;3.85;;;1.70;;
13335;SDS011;6737;51.480;11.962;2023-07-16T11:17:13;4.88;;;1.77;;
13335;SDS011;6737;51.480;11.962;2023-07-16T11:19:40;4.65;;;1.85;;
13335;SDS011;6737;51.480;11.962;2023-07-16T11:22:08;3.80;;;1.60;;
13335;SDS011;6737;51.480;11.962;2023-07-16T11:24:47;5.00;;;1.80;;
13335;SDS011;6737;51.480;11.962;2023-07-16T11:29:50;2.28;;;1.55;;
13335;SDS011;6737;51.480;11.962;2023-07-16T11:32:30;2.65;;;1.70;;
13335;SDS011;6737;51.480;11.962;2023-07-16T11:35:00;3.40;;;1.60;;
13335;SDS011;6737;51.480;11.962;2023-07-16T11:37:28;4.63;;;1.73;;
13335;SDS011;6737;51.480;11.962;2023-07-16T11:39:58;4.22;;;1.73;;
13335;SDS011;6737;51.480;11.962;2023-07-16T11:42:28;3.22;;;1.70;;
13335;SDS011;6737;51.480;11.962;2023-07-16T11:44:59;4.72;;;1.80;;
13335;SDS011;6737;51.480;11.962;2023-07-16T11:47:25;1.88;;;1.45;;
13335;SDS011;6737;51.480;11.962;2023-07-16T11:49:51;2.97;;;1.70;;
13335;SDS011;6737;51.480;11.962;2023-07-16T11:52:20;5.40;;;1.85;;
13335;SDS011;6737;51.480;11.962;2023-07-16T11:54:48;4.65;;;1.90;;
13335;SDS011;6737;51.480;11.962;2023-07-16T11:57:15;4.25;;;1.80;;
13335;SDS011;6737;51.480;11.962;2023-07-16T11:59:41;4.50;;;1.75;;
13335;SDS011;6737;51.480;11.962;2023-07-16T12:02:07;6.85;;;1.77;;
13335;SDS011;6737;51.480;11.962;2023-07-16T12:04:33;3.97;;;1.70;;
13335;SDS011;6737;51.480;11.962;2023-07-16T12:06:59;5.28;;;1.65;;
13335;SDS011;6737;51.480;11.962;2023-07-16T12:09:25;5.22;;;1.77;;
13335;SDS011;6737;51.480;11.962;2023-07-16T12:11:50;2.10;;;1.60;;
13335;SDS011;6737;51.480;11.962;2023-07-16T12:14:16;5.13;;;1.83;;
13335;SDS011;6737;51.480;11.962;2023-07-16T12:16:42;3.97;;;1.80;;
13335;SDS011;6737;51.480;11.962;2023-07-16T12:19:08;4.05;;;1.75;;
13335;SDS011;6737;51.480;11.962;2023-07-16T12:21:35;3.70;;;1.70;;
13335;SDS011;6737;51.480;11.962;2023-07-16T12:24:01;4.50;;;1.80;;
13335;SDS011;6737;51.480;11.962;2023-07-16T12:26:27;2.17;;;1.60;;
13335;SDS011;6737;51.480;11.962;2023-07-16T12:28:53;7.43;;;2.05;;
13335;SDS011;6737;51.480;11.962;2023-07-16T12:31:18;4.03;;;1.90;;
13335;SDS011;6737;51.480;11.962;2023-07-16T12:33:45;3.50;;;1.75;;
13335;SDS011;6737;51.480;11.962;2023-07-16T12:36:12;4.28;;;2.05;;
13335;SDS011;6737;51.480;11.962;2023-07-16T12:38:39;2.92;;;1.60;;
13335;SDS011;6737;51.480;11.962;2023-07-16T12:41:05;2.85;;;1.80;;
13335;SDS011;6737;51.480;11.962;2023-07-16T12:43:31;3.25;;;1.88;;
13335;SDS011;6737;51.480;11.962;2023-07-16T12:46:02;3.17;;;1.83;;
13335;SDS011;6737;51.480;11.962;2023-07-16T12:48:31;3.88;;;1.88;;
13335;SDS011;6737;51.480;11.962;2023-07-16T12:50:58;2.60;;;1.60;;
13335;SDS011;6737;51.480;11.962;2023-07-16T12:53:24;5.03;;;2.15;;
13335;SDS011;6737;51.480;11.962;2023-07-16T12:55:50;5.75;;;1.90;;
13335;SDS011;6737;51.480;11.962;2023-07-16T12:58:16;3.75;;;1.88;;
13335;SDS011;6737;51.480;11.962;2023-07-16T13:00:42;3.50;;;1.90;;
13335;SDS011;6737;51.480;11.962;2023-07-16T13:03:08;1.95;;;1.50;;
13335;SDS011;6737;51.480;11.962;2023-07-16T13:05:39;3.53;;;2.10;;
13335;SDS011;6737;51.480;11.962;2023-07-16T13:08:06;2.97;;;1.90;;
13335;SDS011;6737;51.480;11.962;2023-07-16T13:10:32;3.38;;;1.80;;
13335;SDS011;6737;51.480;11.962;2023-07-16T13:12:58;5.10;;;2.03;;
13335;SDS011;6737;51.480;11.962;2023-07-16T13:15:24;3.70;;;1.95;;
13335;SDS011;6737;51.480;11.962;2023-07-16T13:17:49;2.90;;;1.85;;
13335;SDS011;6737;51.480;11.962;2023-07-16T13:20:16;2.97;;;2.10;;
13335;SDS011;6737;51.480;11.962;2023-07-16T13:22:43;3.85;;;1.90;;
13335;SDS011;6737;51.480;11.962;2023-07-16T13:25:09;4.35;;;2.10;;
13335;SDS011;6737;51.480;11.962;2023-07-16T13:27:35;5.30;;;2.10;;
13335;SDS011;6737;51.480;11.962;2023-07-16T13:30:01;4.38;;;2.00;;
13335;SDS011;6737;51.480;11.962;2023-07-16T13:32:26;3.83;;;2.13;;
13335;SDS011;6737;51.480;11.962;2023-07-16T13:34:53;6.15;;;2.10;;
13335;SDS011;6737;51.480;11.962;2023-07-16T13:37:19;2.92;;;1.90;;
13335;SDS011;6737;51.480;11.962;2023-07-16T13:39:45;4.13;;;2.28;;
13335;SDS011;6737;51.480;11.962;2023-07-16T13:42:10;4.70;;;2.05;;
13335;SDS011;6737;51.480;11.962;2023-07-16T13:44:36;3.25;;;2.13;;
13335;SDS011;6737;51.480;11.962;2023-07-16T13:47:02;3.25;;;2.40;;
13335;SDS011;6737;51.480;11.962;2023-07-16T13:49:29;3.67;;;2.10;;
13335;SDS011;6737;51.480;11.962;2023-07-16T13:51:55;3.13;;;1.90;;
13335;SDS011;6737;51.480;11.962;2023-07-16T13:54:21;5.45;;;2.28;;
13335;SDS011;6737;51.480;11.962;2023-07-16T13:56:47;3.92;;;2.20;;
13335;SDS011;6737;51.480;11.962;2023-07-16T13:59:14;3.13;;;1.95;;
13335;SDS011;6737;51.480;11.962;2023-07-16T14:01:39;5.13;;;2.50;;
13335;SDS011;6737;51.480;11.962;2023-07-16T14:04:06;3.45;;;2.38;;
13335;SDS011;6737;51.480;11.962;2023-07-16T14:06:32;4.63;;;2.38;;
13335;SDS011;6737;51.480;11.962;2023-07-16T14:08:58;5.95;;;2.10;;
13335;SDS011;6737;51.480;11.962;2023-07-16T14:11:25;3.67;;;2.30;;
13335;SDS011;6737;51.480;11.962;2023-07-16T14:13:51;2.97;;;2.00;;
13335;SDS011;6737;51.480;11.962;2023-07-16T14:16:19;5.13;;;2.40;;
13335;SDS011;6737;51.480;11.962;2023-07-16T14:18:49;6.05;;;2.45;;
13335;SDS011;6737;51.480;11.962;2023-07-16T14:21:17;5.55;;;2.30;;
13335;SDS011;6737;51.480;11.962;2023-07-16T14:23:43;4.53;;;2.40;;
13335;SDS011;6737;51.480;11.962;2023-07-16T14:26:12;4.50;;;2.58;;
13335;SDS011;6737;51.480;11.962;2023-07-16T14:28:38;2.97;;;2.10;;
13335;SDS011;6737;51.480;11.962;2023-07-16T14:31:04;5.05;;;2.25;;
13335;SDS011;6737;51.480;11.962;2023-07-16T14:33:30;4.53;;;2.10;;
13335;SDS011;6737;51.480;11.962;2023-07-16T14:35:57;5.07;;;2.58;;
13335;SDS011;6737;51.480;11.962;2023-07-16T14:38:23;4.28;;;2.38;;
13335;SDS011;6737;51.480;11.962;2023-07-16T14:40:49;3.90;;;2.40;;
13335;SDS011;6737;51.480;11.962;2023-07-16T14:43:16;3.85;;;2.22;;
13335;SDS011;6737;51.480;11.962;2023-07-16T14:45:44;5.45;;;2.42;;
13335;SDS011;6737;51.480;11.962;2023-07-16T14:48:09;3.67;;;2.30;;
13335;SDS011;6737;51.480;11.962;2023-07-16T14:50:35;6.00;;;2.40;;
13335;SDS011;6737;51.480;11.962;2023-07-16T14:53:01;4.47;;;2.28;;
13335;SDS011;6737;51.480;11.962;2023-07-16T14:55:27;3.70;;;2.50;;
13335;SDS011;6737;51.480;11.962;2023-07-16T14:57:53;2.80;;;2.08;;
13335;SDS011;6737;51.480;11.962;2023-07-16T15:00:19;4.95;;;2.40;;
13335;SDS011;6737;51.480;11.962;2023-07-16T15:02:45;5.28;;;2.30;;
13335;SDS011;6737;51.480;11.962;2023-07-16T15:05:11;3.40;;;2.33;;
13335;SDS011;6737;51.480;11.962;2023-07-16T15:07:37;5.15;;;2.53;;
13335;SDS011;6737;51.480;11.962;2023-07-16T15:10:03;3.95;;;2.50;;